createdAt,value
2019-02-05T00:01:59.629Z,0.30
2019-02-05T00:04:30.242Z,0.40
2019-02-05T00:06:59.995Z,0.40
2019-02-05T00:09:29.464Z,0.40
2019-02-05T00:11:59.646Z,0.50
2019-02-05T00:14:29.492Z,0.50
2019-02-05T00:16:59.469Z,0.50
2019-02-05T00:19:29.298Z,0.50
2019-02-05T00:21:59.591Z,0.50
2019-02-05T00:24:29.159Z,0.50
2019-02-05T00:26:59.469Z,0.60
2019-02-05T00:29:29.927Z,0.60
2019-02-05T00:32:00.107Z,0.60
2019-02-05T00:34:30.656Z,0.60
2019-02-05T00:37:00.755Z,0.60
2019-02-05T00:39:30.847Z,0.70
2019-02-05T00:42:01.335Z,0.70
2019-02-05T00:44:30.804Z,0.70
2019-02-05T00:47:00.579Z,0.70
2019-02-05T00:49:30.689Z,0.70
2019-02-05T00:52:00.870Z,0.80
2019-02-05T00:54:30.670Z,0.80
2019-02-05T00:57:00.816Z,0.80
2019-02-05T00:59:30.614Z,0.80
2019-02-05T01:02:00.416Z,0.80
2019-02-05T01:04:30.188Z,0.80
2019-02-05T01:06:59.451Z,0.70
2019-02-05T01:09:29.391Z,0.60
2019-02-05T01:11:59.764Z,0.60
2019-02-05T01:14:30.025Z,0.60
2019-02-05T01:17:00.132Z,0.60
2019-02-05T01:19:30.239Z,0.70
2019-02-05T01:22:00.022Z,0.70
2019-02-05T01:24:29.990Z,0.70
2019-02-05T01:27:00.379Z,0.70
2019-02-05T01:29:30.439Z,0.70
2019-02-05T01:32:01.183Z,0.60
2019-02-05T01:34:31.374Z,0.70
2019-02-05T01:37:03.101Z,0.70
2019-02-05T01:39:33.263Z,0.70
2019-02-05T01:42:03.660Z,0.70
2019-02-05T01:44:33.472Z,0.70
2019-02-05T01:47:03.579Z,0.80
2019-02-05T01:49:33.015Z,0.70
2019-02-05T01:52:02.680Z,0.70
2019-02-05T01:54:33.108Z,0.60
2019-02-05T01:57:02.897Z,0.50
2019-02-05T01:59:33.020Z,0.50
2019-02-05T02:02:02.833Z,0.50
2019-02-05T02:04:33.081Z,0.40
2019-02-05T02:07:03.115Z,0.40
2019-02-05T02:09:33.078Z,0.40
2019-02-05T02:12:03.336Z,0.20
2019-02-05T02:14:32.815Z,0.10
2019-02-05T02:17:03.100Z,0.10
2019-02-05T02:19:34.511Z,0.10
2019-02-05T02:22:04.839Z,0.10
2019-02-05T02:24:35.231Z,0.20
2019-02-05T02:27:04.959Z,0.10
2019-02-05T02:29:34.718Z,0.10
2019-02-05T02:32:04.642Z,0.10
2019-02-05T02:34:34.412Z,0.00
2019-02-05T02:37:04.547Z,0.00
2019-02-05T02:39:34.755Z,0.00
2019-02-05T02:42:04.469Z,0.00
2019-02-05T02:44:34.468Z,-0.10
2019-02-05T02:47:05.172Z,-0.10
2019-02-05T02:49:35.505Z,-0.20
2019-02-05T02:52:05.499Z,-0.20
2019-02-05T02:54:35.348Z,-0.20
2019-02-05T02:57:05.391Z,-0.20
2019-02-05T02:59:35.122Z,-0.20
2019-02-05T03:02:05.083Z,-0.30
2019-02-05T03:04:34.869Z,-0.30
2019-02-05T03:07:04.895Z,-0.30
2019-02-05T03:09:35.245Z,-0.30
2019-02-05T03:12:05.393Z,-0.40
2019-02-05T03:14:35.453Z,-0.50
2019-02-05T03:17:05.792Z,-0.50
2019-02-05T03:19:35.549Z,-0.50
2019-02-05T03:22:04.944Z,-0.60
2019-02-05T03:24:34.656Z,-0.60
2019-02-05T03:27:16.921Z,-0.60
2019-02-05T03:29:36.549Z,-0.70
2019-02-05T03:32:06.698Z,-0.70
2019-02-05T03:34:36.856Z,-0.70
2019-02-05T03:37:07.352Z,-0.70
2019-02-05T03:39:37.559Z,-0.70
2019-02-05T03:42:07.788Z,-0.70
2019-02-05T03:44:37.704Z,-0.80
2019-02-05T03:47:07.679Z,-0.80
2019-02-05T03:49:38.098Z,-0.80
2019-02-05T03:52:16.060Z,-0.80
2019-02-05T03:55:42.435Z,-0.80
2019-02-05T03:58:53.205Z,-0.80
2019-02-05T04:02:02.309Z,-0.80
2019-02-05T04:05:07.312Z,-0.90
2019-02-05T04:08:01.540Z,-0.90
2019-02-05T04:10:55.508Z,-0.90
2019-02-05T04:14:03.555Z,-0.90
2019-02-05T04:17:15.367Z,-0.90
2019-02-05T04:20:10.964Z,-0.90
2019-02-05T04:23:12.918Z,-0.90
2019-02-05T04:26:06.779Z,-0.90
2019-02-05T04:29:12.424Z,-0.90
2019-02-05T04:32:16.520Z,-1.00
2019-02-05T04:35:22.855Z,-0.90
2019-02-05T04:38:14.105Z,-0.90
2019-02-05T04:41:01.899Z,-1.00
2019-02-05T04:44:02.649Z,-0.90
2019-02-05T04:47:02.367Z,-0.90
2019-02-05T04:49:50.301Z,-0.90
2019-02-05T04:52:52.360Z,-0.90
2019-02-05T04:55:48.055Z,-1.00
2019-02-05T04:59:00.158Z,-1.00
2019-02-05T05:01:58.387Z,-1.00
2019-02-05T05:04:41.864Z,-0.90
2019-02-05T05:07:43.738Z,-1.00
2019-02-05T05:10:13.308Z,-1.00
2019-02-05T05:12:43.594Z,-1.00
2019-02-05T05:15:14.601Z,-0.90
2019-02-05T05:17:44.435Z,-1.00
2019-02-05T05:20:15.744Z,-1.00
2019-02-05T05:22:46.081Z,-1.00
2019-02-05T05:25:16.280Z,-1.00
2019-02-05T05:27:46.393Z,-1.00
2019-02-05T05:30:20.049Z,-1.00
2019-02-05T05:32:50.174Z,-1.00
2019-02-05T05:35:20.430Z,-1.00
2019-02-05T05:37:51.058Z,-1.10
2019-02-05T05:40:20.707Z,-1.10
2019-02-05T05:42:50.775Z,-1.10
2019-02-05T05:45:20.869Z,-1.10
2019-02-05T05:47:51.263Z,-1.10
2019-02-05T05:50:21.368Z,-1.10
2019-02-05T05:52:52.003Z,-1.10
2019-02-05T05:55:21.823Z,-1.10
2019-02-05T05:57:51.548Z,-1.10
2019-02-05T06:00:21.386Z,-1.10
2019-02-05T06:02:51.560Z,-1.10
2019-02-05T06:05:21.539Z,-1.20
2019-02-05T06:07:52.080Z,-1.20
2019-02-05T06:10:24.660Z,-1.20
2019-02-05T06:12:54.433Z,-1.20
2019-02-05T06:15:24.510Z,-1.20
2019-02-05T06:17:54.500Z,-1.20
2019-02-05T06:20:24.320Z,-1.20
2019-02-05T06:22:54.396Z,-1.20
2019-02-05T06:25:24.417Z,-1.30
2019-02-05T06:27:54.554Z,-1.30
2019-02-05T06:30:24.649Z,-1.30
2019-02-05T06:33:14.662Z,-1.30
2019-02-05T06:35:39.238Z,-1.30
2019-02-05T06:38:09.267Z,-1.30
2019-02-05T06:40:38.956Z,-1.30
2019-02-05T06:43:09.447Z,-1.40
2019-02-05T06:45:41.549Z,-1.40
2019-02-05T06:48:11.849Z,-1.40
2019-02-05T06:50:41.600Z,-1.40
2019-02-05T06:53:11.700Z,-1.40
2019-02-05T06:55:41.739Z,-1.40
2019-02-05T06:58:11.123Z,-1.30
2019-02-05T07:00:41.127Z,-1.30
2019-02-05T07:03:11.417Z,-1.30
2019-02-05T07:05:41.752Z,-1.20
2019-02-05T07:08:10.918Z,-1.20
2019-02-05T07:10:41.230Z,-1.20
2019-02-05T07:13:10.584Z,-1.20
2019-02-05T07:15:40.196Z,-1.10
2019-02-05T07:18:10.175Z,-1.10
2019-02-05T07:20:40.201Z,-1.00
2019-02-05T07:23:09.955Z,-1.00
2019-02-05T07:25:39.587Z,-0.90
2019-02-05T07:28:09.271Z,-0.90
2019-02-05T07:30:39.520Z,-0.80
2019-02-05T07:33:09.788Z,-0.80
2019-02-05T07:35:40.423Z,-0.80
2019-02-05T07:38:10.393Z,-0.70
2019-02-05T07:40:40.397Z,-0.70
2019-02-05T07:43:10.660Z,-0.70
2019-02-05T07:45:40.685Z,-0.60
2019-02-05T07:48:10.763Z,-0.60
2019-02-05T07:50:41.030Z,-0.60
2019-02-05T07:53:11.440Z,-0.50
2019-02-05T07:55:41.465Z,-0.50
2019-02-05T07:58:11.321Z,-0.50
2019-02-05T08:00:41.320Z,-0.40
2019-02-05T08:03:10.763Z,-0.30
2019-02-05T08:05:40.934Z,-0.30
2019-02-05T08:08:11.051Z,-0.20
2019-02-05T08:10:41.127Z,-0.20
2019-02-05T08:13:10.912Z,-0.10
2019-02-05T08:15:40.648Z,0.00
2019-02-05T08:18:10.041Z,0.00
2019-02-05T08:20:40.407Z,0.10
2019-02-05T08:23:10.451Z,0.20
2019-02-05T08:25:40.389Z,0.30
2019-02-05T08:28:09.880Z,0.40
2019-02-05T08:30:42.763Z,0.50
2019-02-05T08:33:12.761Z,0.60
2019-02-05T08:35:43.086Z,0.60
2019-02-05T08:38:12.836Z,0.70
2019-02-05T08:40:43.066Z,0.80
2019-02-05T08:43:12.787Z,0.90
2019-02-05T08:45:43.185Z,1.00
2019-02-05T08:48:13.543Z,1.10
2019-02-05T08:50:43.628Z,1.20
2019-02-05T08:53:13.664Z,1.30
2019-02-05T08:55:43.191Z,1.30
2019-02-05T08:58:13.526Z,1.40
2019-02-05T09:00:43.756Z,1.50
2019-02-05T09:03:13.848Z,1.50
2019-02-05T09:05:43.231Z,1.60
2019-02-05T09:08:12.975Z,1.70
2019-02-05T09:10:42.796Z,1.70
2019-02-05T09:13:13.628Z,1.80
2019-02-05T09:15:43.099Z,1.90
2019-02-05T09:18:13.127Z,2.00
2019-02-05T09:20:42.901Z,2.10
2019-02-05T09:23:14.344Z,2.20
2019-02-05T09:25:44.211Z,2.20
2019-02-05T09:28:14.960Z,2.30
2019-02-05T09:30:44.105Z,2.30
2019-02-05T09:33:14.262Z,2.40
2019-02-05T09:35:44.303Z,2.50
2019-02-05T09:38:14.028Z,2.50
2019-02-05T09:40:44.280Z,2.70
2019-02-05T09:43:13.999Z,2.70
2019-02-05T09:45:43.722Z,2.80
2019-02-05T09:48:14.032Z,2.90
2019-02-05T09:50:45.236Z,3.00
2019-02-05T09:53:15.115Z,3.10
2019-02-05T09:55:44.920Z,3.20
2019-02-05T09:58:15.181Z,3.30
2019-02-05T10:00:45.268Z,3.30
2019-02-05T10:03:15.364Z,3.50
2019-02-05T10:05:44.763Z,3.60
2019-02-05T10:08:14.744Z,3.60
2019-02-05T10:10:44.775Z,3.70
2019-02-05T10:13:15.128Z,3.70
2019-02-05T10:15:45.379Z,3.60
2019-02-05T10:18:15.318Z,3.50
2019-02-05T10:20:45.476Z,3.60
2019-02-05T10:23:15.474Z,3.60
2019-02-05T10:25:45.952Z,3.80
2019-02-05T10:28:15.915Z,3.90
2019-02-05T10:30:47.056Z,3.90
2019-02-05T10:33:16.703Z,3.90
2019-02-05T10:35:47.139Z,4.30
2019-02-05T10:38:16.938Z,4.40
2019-02-05T10:40:46.415Z,4.40
2019-02-05T10:43:16.500Z,4.70
2019-02-05T10:45:46.616Z,5.20
2019-02-05T10:48:16.415Z,5.40
2019-02-05T10:50:46.611Z,5.40
2019-02-05T10:53:16.595Z,5.60
2019-02-05T10:55:46.053Z,6.00
2019-02-05T10:58:15.808Z,6.30
2019-02-05T11:00:45.541Z,6.20
2019-02-05T11:03:14.952Z,6.50
2019-02-05T11:05:45.303Z,7.20
2019-02-05T11:08:15.172Z,7.20
2019-02-05T11:10:45.269Z,7.50
2019-02-05T11:13:15.640Z,7.30
2019-02-05T11:15:46.816Z,8.10
2019-02-05T11:18:16.903Z,8.20
2019-02-05T11:20:46.574Z,8.20
2019-02-05T11:23:16.918Z,8.40
2019-02-05T11:25:46.981Z,8.00
2019-02-05T11:28:17.059Z,8.30
2019-02-05T11:31:01.663Z,8.30
2019-02-05T11:33:52.973Z,8.00
2019-02-05T11:36:22.670Z,8.40
2019-02-05T11:38:52.827Z,9.40
2019-02-05T11:41:22.747Z,9.60
2019-02-05T11:43:53.069Z,9.80
2019-02-05T11:46:23.078Z,8.90
2019-02-05T11:48:54.320Z,9.50
2019-02-05T11:51:24.288Z,10.30
2019-02-05T11:53:54.262Z,10.50
2019-02-05T11:56:24.079Z,10.70
2019-02-05T11:58:54.063Z,10.40
2019-02-05T12:01:38.590Z,10.70
2019-02-05T12:04:00.315Z,10.00
2019-02-05T12:06:30.041Z,9.60
2019-02-05T12:08:59.771Z,9.60
2019-02-05T12:11:30.242Z,9.90
2019-02-05T12:14:01.802Z,10.40
2019-02-05T12:16:31.582Z,10.80
2019-02-05T12:19:02.231Z,11.30
2019-02-05T12:21:31.907Z,11.60
2019-02-05T12:24:01.678Z,11.60
2019-02-05T12:26:31.772Z,11.60
2019-02-05T12:29:01.877Z,12.30
2019-02-05T12:31:31.943Z,11.60
2019-02-05T12:34:01.755Z,11.10
2019-02-05T12:36:32.017Z,11.30
2019-02-05T12:39:02.259Z,11.70
2019-02-05T12:41:32.639Z,11.60
2019-02-05T12:44:02.636Z,11.00
2019-02-05T12:46:32.959Z,11.00
2019-02-05T12:49:03.262Z,10.80
2019-02-05T12:51:33.051Z,10.60
2019-02-05T12:54:03.212Z,10.90
2019-02-05T12:56:33.298Z,11.10
2019-02-05T12:59:03.255Z,11.40
2019-02-05T13:01:32.962Z,11.40
2019-02-05T13:04:03.627Z,11.40
2019-02-05T13:06:33.942Z,11.50
2019-02-05T13:09:05.323Z,11.30
2019-02-05T13:11:35.420Z,11.10
2019-02-05T13:14:05.682Z,11.60
2019-02-05T13:16:35.746Z,10.90
2019-02-05T13:19:05.725Z,10.70
2019-02-05T13:21:35.787Z,10.70
2019-02-05T13:24:06.163Z,11.00
2019-02-05T13:26:36.214Z,11.80
2019-02-05T13:29:06.265Z,11.50
2019-02-05T13:31:36.335Z,11.50
2019-02-05T13:34:06.619Z,11.30
2019-02-05T13:36:36.941Z,11.30
2019-02-05T13:39:11.970Z,11.00
2019-02-05T13:41:41.881Z,11.70
2019-02-05T13:44:11.705Z,12.20
2019-02-05T13:46:42.036Z,11.80
2019-02-05T13:49:12.731Z,11.50
2019-02-05T13:51:42.720Z,10.90
2019-02-05T13:54:12.456Z,10.90
2019-02-05T13:56:42.788Z,11.00
2019-02-05T13:59:12.986Z,11.00
2019-02-05T14:01:44.607Z,10.90
2019-02-05T14:04:14.672Z,11.00
2019-02-05T14:06:44.650Z,11.20
2019-02-05T14:09:15.372Z,11.40
2019-02-05T14:11:44.909Z,11.40
2019-02-05T14:14:14.897Z,11.30
2019-02-05T14:16:45.200Z,10.30
2019-02-05T14:19:15.035Z,10.20
2019-02-05T14:21:45.312Z,9.90
2019-02-05T14:24:15.089Z,9.90
2019-02-05T14:26:45.148Z,9.90
2019-02-05T14:29:15.296Z,9.90
2019-02-05T14:31:44.478Z,10.20
2019-02-05T14:34:14.749Z,10.50
2019-02-05T14:47:06.479Z,9.50
2019-02-05T14:49:36.960Z,9.70
2019-02-05T14:52:07.371Z,9.70
2019-02-05T14:54:37.687Z,9.60
2019-02-05T14:57:07.308Z,9.60
2019-02-05T14:59:37.764Z,9.60
2019-02-05T15:02:07.836Z,9.60
2019-02-05T15:04:37.935Z,9.40
2019-02-05T15:07:07.919Z,9.30
2019-02-05T15:09:38.331Z,9.10
2019-02-05T15:12:08.433Z,8.90
2019-02-05T15:14:38.491Z,8.50
2019-02-05T15:17:08.219Z,8.40
2019-02-05T15:19:38.148Z,8.20
2019-02-05T15:22:08.472Z,8.20
2019-02-05T15:24:41.010Z,8.20
2019-02-05T15:27:10.999Z,8.30
2019-02-05T15:29:41.123Z,8.30
2019-02-05T15:32:13.638Z,8.40
2019-02-05T15:34:43.724Z,8.40
2019-02-05T15:37:14.099Z,8.40
2019-02-05T15:39:43.883Z,8.40
2019-02-05T15:42:13.863Z,8.40
2019-02-05T15:44:43.610Z,8.30
2019-02-05T15:47:13.641Z,8.30
2019-02-05T15:49:43.939Z,8.30
2019-02-05T15:52:14.532Z,8.20
2019-02-05T15:54:44.367Z,8.20
2019-02-05T15:57:13.828Z,8.20
2019-02-05T15:59:44.863Z,8.10
2019-02-05T16:02:17.079Z,8.00
2019-02-05T16:04:48.289Z,7.90
2019-02-05T16:07:18.767Z,7.80
2019-02-05T16:09:49.319Z,7.70
2019-02-05T16:12:21.182Z,7.50
2019-02-05T16:14:52.033Z,7.40
2019-02-05T16:17:21.414Z,7.30
2019-02-05T16:19:51.259Z,7.10
2019-02-05T16:22:21.884Z,7.00
2019-02-05T16:24:52.269Z,6.90
2019-02-05T16:27:21.707Z,6.80
2019-02-05T16:29:51.667Z,6.60
2019-02-05T16:32:22.080Z,6.60
2019-02-05T16:34:52.378Z,6.40
2019-02-05T16:37:22.467Z,6.30
2019-02-05T16:39:52.493Z,6.10
2019-02-05T16:42:22.164Z,6.00
2019-02-05T16:44:53.110Z,5.90
2019-02-05T16:47:23.451Z,5.80
2019-02-05T16:49:52.849Z,5.70
2019-02-05T16:52:22.993Z,5.60
2019-02-05T16:54:53.140Z,5.50
2019-02-05T16:57:22.676Z,5.40
2019-02-05T16:59:52.951Z,5.20
2019-02-05T17:02:28.918Z,5.10
2019-02-05T17:04:55.821Z,5.00
2019-02-05T17:07:26.274Z,4.90
2019-02-05T17:09:56.211Z,4.90
2019-02-05T17:12:26.634Z,4.80
2019-02-05T17:14:56.638Z,4.70
2019-02-05T17:17:27.256Z,4.60
2019-02-05T17:19:57.245Z,4.50
2019-02-05T17:22:27.644Z,4.50
2019-02-05T17:24:58.032Z,4.30
2019-02-05T17:27:28.472Z,4.30
2019-02-05T17:29:58.779Z,4.20
2019-02-05T17:32:39.678Z,4.10
2019-02-05T17:35:00.725Z,4.00
2019-02-05T17:37:30.781Z,3.90
2019-02-05T17:40:00.893Z,3.90
2019-02-05T17:42:31.029Z,3.80
2019-02-05T17:45:01.077Z,3.70
2019-02-05T17:47:30.808Z,3.70
2019-02-05T17:50:00.658Z,3.60
2019-02-05T17:52:31.082Z,3.60
2019-02-05T17:55:00.980Z,3.50
2019-02-05T17:57:31.000Z,3.50
2019-02-05T18:00:01.108Z,3.40
2019-02-05T18:02:31.922Z,3.30
2019-02-05T18:05:01.731Z,3.30
2019-02-05T18:07:31.636Z,3.20
2019-02-05T18:10:01.886Z,3.00
2019-02-05T18:12:32.022Z,3.00
2019-02-05T18:15:02.683Z,2.90
2019-02-05T18:17:32.847Z,2.70
2019-02-05T18:20:02.948Z,2.60
2019-02-05T18:22:32.786Z,2.40
2019-02-05T18:25:02.517Z,2.30
2019-02-05T18:27:32.163Z,2.20
2019-02-05T18:30:02.171Z,2.30
2019-02-05T18:32:32.285Z,2.20
2019-02-05T18:35:02.652Z,2.10
2019-02-05T18:37:32.996Z,2.00
2019-02-05T18:40:02.876Z,2.00
2019-02-05T18:42:32.691Z,1.90
2019-02-05T18:45:02.988Z,1.90
2019-02-05T18:47:33.362Z,1.90
2019-02-05T18:50:03.148Z,1.90
2019-02-05T18:52:32.893Z,1.80
2019-02-05T18:55:03.577Z,1.80
2019-02-05T18:57:33.426Z,1.80
2019-02-05T19:00:04.540Z,1.70
2019-02-05T19:02:34.800Z,1.60
2019-02-05T19:05:05.203Z,1.60
2019-02-05T19:07:36.154Z,1.60
2019-02-05T19:10:09.511Z,1.50
2019-02-05T19:12:39.574Z,1.50
2019-02-05T19:15:15.109Z,1.50
2019-02-05T19:17:45.041Z,1.40
2019-02-05T19:20:16.992Z,1.30
2019-02-05T19:22:47.329Z,1.20
2019-02-05T19:25:36.127Z,1.10
2019-02-05T19:28:05.682Z,1.00
2019-02-05T19:30:37.875Z,1.00
2019-02-05T19:33:08.441Z,1.00
2019-02-05T19:35:40.043Z,1.00
2019-02-05T19:38:13.287Z,0.90
2019-02-05T19:40:41.680Z,0.90
2019-02-05T19:43:11.294Z,0.80
2019-02-05T19:45:50.947Z,0.80
2019-02-05T19:48:34.132Z,0.80
2019-02-05T19:51:04.495Z,0.70
2019-02-05T19:53:34.458Z,0.80
2019-02-05T19:56:04.673Z,0.80
2019-02-05T19:58:35.850Z,0.70
2019-02-05T20:01:05.775Z,0.70
2019-02-05T20:03:38.819Z,0.70
2019-02-05T20:06:07.338Z,0.70
2019-02-05T20:08:37.432Z,0.70
2019-02-05T20:11:07.531Z,0.70
2019-02-05T20:13:40.268Z,0.70
2019-02-05T20:16:09.559Z,0.70
2019-02-05T20:18:39.233Z,0.60
2019-02-05T20:21:09.472Z,0.60
2019-02-05T20:23:40.621Z,0.60
2019-02-05T20:26:12.469Z,0.60
2019-02-05T20:28:43.716Z,0.60
2019-02-05T20:31:14.270Z,0.60
2019-02-05T20:33:49.975Z,0.60
2019-02-05T20:36:18.531Z,0.50
2019-02-05T20:38:49.787Z,0.50
2019-02-05T20:41:20.577Z,0.50
2019-02-05T20:43:52.901Z,0.40
2019-02-05T20:46:23.226Z,0.40
2019-02-05T20:48:53.642Z,0.40
2019-02-05T20:51:23.749Z,0.40
2019-02-05T20:53:55.466Z,0.40
2019-02-05T20:56:27.374Z,0.30
2019-02-05T20:58:58.096Z,0.30
2019-02-05T21:01:29.457Z,0.30
2019-02-05T21:04:01.622Z,0.30
2019-02-05T21:06:31.561Z,0.20
2019-02-05T21:09:02.515Z,0.20
2019-02-05T21:11:33.195Z,0.20
2019-02-05T21:14:04.147Z,0.10
2019-02-05T21:16:36.015Z,0.10
2019-02-05T21:19:06.553Z,0.10
2019-02-05T21:21:38.138Z,0.10
2019-02-05T21:24:08.823Z,0.10
2019-02-05T21:26:40.922Z,0.10
2019-02-05T21:29:10.989Z,0.00
2019-02-05T21:31:42.438Z,0.00
2019-02-05T21:34:16.002Z,-0.10
2019-02-05T21:36:46.651Z,-0.10
2019-02-05T21:39:17.349Z,-0.10
2019-02-05T21:41:48.035Z,-0.10
2019-02-05T21:44:19.277Z,-0.20
2019-02-05T21:46:51.297Z,-0.20
2019-02-05T21:49:21.798Z,-0.20
2019-02-05T21:51:52.724Z,-0.30
2019-02-05T21:54:22.918Z,-0.40
2019-02-05T21:56:53.633Z,-0.40
2019-02-05T21:59:24.364Z,-0.50
2019-02-05T22:01:55.432Z,-0.50
2019-02-05T22:04:27.348Z,-0.60
2019-02-05T22:06:58.135Z,-0.60
2019-02-05T22:09:28.988Z,-0.60
2019-02-05T22:11:58.831Z,-0.60
2019-02-05T22:14:30.471Z,-0.50
2019-02-05T22:17:01.085Z,-0.50
2019-02-05T22:19:30.922Z,-0.50
2019-02-05T22:22:00.737Z,-0.50
2019-02-05T22:24:31.044Z,-0.60
2019-02-05T22:27:01.202Z,-0.60
2019-02-05T22:29:31.297Z,-0.60
2019-02-05T22:32:01.292Z,-0.60
2019-02-05T22:34:38.848Z,-0.60
2019-02-05T22:37:03.697Z,-0.60
2019-02-05T22:39:34.473Z,-0.60
2019-02-05T22:42:06.151Z,-0.70
2019-02-05T22:44:36.511Z,-0.70
2019-02-05T22:47:06.666Z,-0.70
2019-02-05T22:49:36.840Z,-0.70
2019-02-05T22:52:06.620Z,-0.80
2019-02-05T22:54:36.395Z,-0.70
2019-02-05T22:57:06.769Z,-0.70
2019-02-05T22:59:37.463Z,-0.70
2019-02-05T23:02:07.746Z,-0.80
2019-02-05T23:08:05.703Z,-0.80
2019-02-05T23:11:34.483Z,-0.80
2019-02-05T23:14:04.923Z,-0.90
2019-02-05T23:16:35.049Z,-0.90
2019-02-05T23:19:05.706Z,-0.90
2019-02-05T23:21:35.724Z,-0.90
2019-02-05T23:24:05.899Z,-0.90
2019-02-05T23:26:36.091Z,-0.90
2019-02-05T23:29:06.088Z,-0.90
2019-02-05T23:31:35.879Z,-0.90
2019-02-05T23:34:06.227Z,-0.90
2019-02-05T23:36:36.343Z,-1.00
2019-02-05T23:39:07.079Z,-1.00
2019-02-05T23:41:37.160Z,-1.00
2019-02-05T23:44:07.293Z,-1.10
2019-02-05T23:46:37.330Z,-1.10
2019-02-05T23:49:07.140Z,-1.10
2019-02-05T23:51:36.848Z,-1.10
2019-02-05T23:54:06.594Z,-1.20
2019-02-05T23:56:36.580Z,-1.20
2019-02-05T23:59:06.195Z,-1.20
